sensor_id;sensor_type;location;lat;lon;timestamp;P1;durP1;ratioP1;P2;durP2;ratioP2
19016;SDS011;9641;51.494;6.670;2024-02-26T00:02:06;8.67;;;3.97;;
19016;SDS011;9641;51.494;6.670;2024-02-26T00:04:34;8.17;;;3.13;;
19016;SDS011;9641;51.494;6.670;2024-02-26T00:07:01;7.63;;;3.50;;
19016;SDS011;9641;51.494;6.670;2024-02-26T00:09:27;5.27;;;3.00;;
19016;SDS011;9641;51.494;6.670;2024-02-26T00:11:55;9.50;;;2.83;;
19016;SDS011;9641;51.494;6.670;2024-02-26T00:14:23;4.57;;;2.60;;
19016;SDS011;9641;51.494;6.670;2024-02-26T00:16:49;5.60;;;2.93;;
19016;SDS011;9641;51.494;6.670;2024-02-26T00:19:16;6.47;;;2.80;;
19016;SDS011;9641;51.494;6.670;2024-02-26T00:21:45;4.77;;;3.00;;
19016;SDS011;9641;51.494;6.670;2024-02-26T00:24:12;5.20;;;3.13;;
19016;SDS011;9641;51.494;6.670;2024-02-26T00:26:39;6.57;;;3.10;;
19016;SDS011;9641;51.494;6.670;2024-02-26T00:29:05;4.33;;;2.93;;
19016;SDS011;9641;51.494;6.670;2024-02-26T00:31:32;6.13;;;3.60;;
19016;SDS011;9641;51.494;6.670;2024-02-26T00:33:59;11.30;;;4.40;;
19016;SDS011;9641;51.494;6.670;2024-02-26T00:36:26;4.90;;;3.30;;
19016;SDS011;9641;51.494;6.670;2024-02-26T00:38:55;6.40;;;3.33;;
19016;SDS011;9641;51.494;6.670;2024-02-26T00:41:22;4.30;;;3.13;;
19016;SDS011;9641;51.494;6.670;2024-02-26T00:43:49;5.50;;;2.67;;
19016;SDS011;9641;51.494;6.670;2024-02-26T00:46:15;3.77;;;2.60;;
19016;SDS011;9641;51.494;6.670;2024-02-26T00:48:42;5.23;;;2.93;;
19016;SDS011;9641;51.494;6.670;2024-02-26T00:51:09;5.47;;;3.43;;
19016;SDS011;9641;51.494;6.670;2024-02-26T00:53:36;8.67;;;3.50;;
19016;SDS011;9641;51.494;6.670;2024-02-26T00:56:03;4.13;;;2.60;;
19016;SDS011;9641;51.494;6.670;2024-02-26T00:58:30;7.33;;;2.93;;
19016;SDS011;9641;51.494;6.670;2024-02-26T01:00:57;5.73;;;3.10;;
19016;SDS011;9641;51.494;6.670;2024-02-26T01:03:28;3.97;;;3.03;;
19016;SDS011;9641;51.494;6.670;2024-02-26T01:05:55;3.53;;;3.00;;
19016;SDS011;9641;51.494;6.670;2024-02-26T01:08:21;3.83;;;3.10;;
19016;SDS011;9641;51.494;6.670;2024-02-26T01:10:48;5.60;;;2.60;;
19016;SDS011;9641;51.494;6.670;2024-02-26T01:13:19;5.63;;;2.77;;
19016;SDS011;9641;51.494;6.670;2024-02-26T01:15:46;3.83;;;2.73;;
19016;SDS011;9641;51.494;6.670;2024-02-26T01:18:13;4.43;;;2.53;;
19016;SDS011;9641;51.494;6.670;2024-02-26T01:20:40;4.43;;;3.47;;
19016;SDS011;9641;51.494;6.670;2024-02-26T01:23:06;4.97;;;2.93;;
19016;SDS011;9641;51.494;6.670;2024-02-26T01:25:33;8.00;;;3.47;;
19016;SDS011;9641;51.494;6.670;2024-02-26T01:28:00;8.13;;;3.67;;
19016;SDS011;9641;51.494;6.670;2024-02-26T01:30:28;7.50;;;3.97;;
19016;SDS011;9641;51.494;6.670;2024-02-26T01:32:55;4.90;;;3.50;;
19016;SDS011;9641;51.494;6.670;2024-02-26T01:35:22;5.57;;;3.70;;
19016;SDS011;9641;51.494;6.670;2024-02-26T01:37:49;10.07;;;3.63;;
19016;SDS011;9641;51.494;6.670;2024-02-26T01:40:16;6.60;;;3.60;;
19016;SDS011;9641;51.494;6.670;2024-02-26T01:42:45;7.93;;;3.07;;
19016;SDS011;9641;51.494;6.670;2024-02-26T01:45:12;4.57;;;2.77;;
19016;SDS011;9641;51.494;6.670;2024-02-26T01:47:48;4.57;;;2.90;;
19016;SDS011;9641;51.494;6.670;2024-02-26T01:50:16;5.07;;;2.67;;
19016;SDS011;9641;51.494;6.670;2024-02-26T01:52:43;3.97;;;2.43;;
19016;SDS011;9641;51.494;6.670;2024-02-26T01:55:11;5.33;;;2.47;;
19016;SDS011;9641;51.494;6.670;2024-02-26T01:57:40;5.07;;;2.80;;
19016;SDS011;9641;51.494;6.670;2024-02-26T02:00:08;4.87;;;2.87;;
19016;SDS011;9641;51.494;6.670;2024-02-26T02:02:36;3.87;;;2.80;;
19016;SDS011;9641;51.494;6.670;2024-02-26T02:05:08;7.30;;;2.60;;
19016;SDS011;9641;51.494;6.670;2024-02-26T02:07:36;4.50;;;2.63;;
19016;SDS011;9641;51.494;6.670;2024-02-26T02:10:03;7.33;;;3.50;;
19016;SDS011;9641;51.494;6.670;2024-02-26T02:12:32;6.63;;;3.80;;
19016;SDS011;9641;51.494;6.670;2024-02-26T02:14:59;4.53;;;3.30;;
19016;SDS011;9641;51.494;6.670;2024-02-26T02:17:26;6.67;;;3.07;;
19016;SDS011;9641;51.494;6.670;2024-02-26T02:19:53;7.30;;;3.50;;
19016;SDS011;9641;51.494;6.670;2024-02-26T02:22:22;5.80;;;3.07;;
19016;SDS011;9641;51.494;6.670;2024-02-26T02:24:52;4.27;;;3.43;;
19016;SDS011;9641;51.494;6.670;2024-02-26T02:27:21;8.07;;;3.40;;
19016;SDS011;9641;51.494;6.670;2024-02-26T02:29:47;3.67;;;3.00;;
19016;SDS011;9641;51.494;6.670;2024-02-26T02:32:15;4.13;;;3.00;;
19016;SDS011;9641;51.494;6.670;2024-02-26T02:34:43;5.17;;;3.10;;
19016;SDS011;9641;51.494;6.670;2024-02-26T02:37:10;5.47;;;3.30;;
19016;SDS011;9641;51.494;6.670;2024-02-26T02:39:39;3.77;;;2.70;;
19016;SDS011;9641;51.494;6.670;2024-02-26T02:42:08;3.57;;;2.90;;
19016;SDS011;9641;51.494;6.670;2024-02-26T02:44:35;3.77;;;3.20;;
19016;SDS011;9641;51.494;6.670;2024-02-26T02:47:01;4.13;;;3.10;;
19016;SDS011;9641;51.494;6.670;2024-02-26T02:49:28;4.90;;;3.33;;
19016;SDS011;9641;51.494;6.670;2024-02-26T02:51:55;5.10;;;3.23;;
19016;SDS011;9641;51.494;6.670;2024-02-26T02:54:23;4.37;;;2.90;;
19016;SDS011;9641;51.494;6.670;2024-02-26T02:56:51;3.60;;;2.87;;
19016;SDS011;9641;51.494;6.670;2024-02-26T02:59:18;3.00;;;2.67;;
19016;SDS011;9641;51.494;6.670;2024-02-26T03:01:44;4.20;;;3.17;;
19016;SDS011;9641;51.494;6.670;2024-02-26T03:04:11;4.90;;;3.10;;
19016;SDS011;9641;51.494;6.670;2024-02-26T03:06:38;3.00;;;2.80;;
19016;SDS011;9641;51.494;6.670;2024-02-26T03:09:05;4.40;;;2.80;;
19016;SDS011;9641;51.494;6.670;2024-02-26T03:11:32;2.93;;;2.70;;
19016;SDS011;9641;51.494;6.670;2024-02-26T03:14:00;6.27;;;2.97;;
19016;SDS011;9641;51.494;6.670;2024-02-26T03:16:27;3.27;;;2.87;;
19016;SDS011;9641;51.494;6.670;2024-02-26T03:18:54;3.47;;;3.10;;
19016;SDS011;9641;51.494;6.670;2024-02-26T03:21:20;4.77;;;2.83;;
19016;SDS011;9641;51.494;6.670;2024-02-26T03:23:47;3.03;;;2.60;;
19016;SDS011;9641;51.494;6.670;2024-02-26T03:26:14;4.70;;;2.80;;
19016;SDS011;9641;51.494;6.670;2024-02-26T03:28:41;4.70;;;3.10;;
19016;SDS011;9641;51.494;6.670;2024-02-26T03:31:09;3.23;;;2.50;;
19016;SDS011;9641;51.494;6.670;2024-02-26T03:33:37;5.83;;;2.67;;
19016;SDS011;9641;51.494;6.670;2024-02-26T03:36:04;3.87;;;2.73;;
19016;SDS011;9641;51.494;6.670;2024-02-26T03:38:32;6.87;;;3.13;;
19016;SDS011;9641;51.494;6.670;2024-02-26T03:40:59;3.57;;;2.77;;
19016;SDS011;9641;51.494;6.670;2024-02-26T03:43:26;4.27;;;2.53;;
19016;SDS011;9641;51.494;6.670;2024-02-26T03:45:53;4.20;;;2.70;;
19016;SDS011;9641;51.494;6.670;2024-02-26T03:48:21;3.00;;;2.73;;
19016;SDS011;9641;51.494;6.670;2024-02-26T03:50:48;4.20;;;3.17;;
19016;SDS011;9641;51.494;6.670;2024-02-26T03:53:14;3.13;;;2.87;;
19016;SDS011;9641;51.494;6.670;2024-02-26T03:55:41;3.83;;;3.13;;
19016;SDS011;9641;51.494;6.670;2024-02-26T03:58:08;4.87;;;3.23;;
19016;SDS011;9641;51.494;6.670;2024-02-26T04:00:35;4.90;;;3.83;;
19016;SDS011;9641;51.494;6.670;2024-02-26T04:03:03;3.83;;;2.87;;
19016;SDS011;9641;51.494;6.670;2024-02-26T04:05:31;4.80;;;3.77;;
19016;SDS011;9641;51.494;6.670;2024-02-26T04:07:58;5.10;;;3.30;;
19016;SDS011;9641;51.494;6.670;2024-02-26T04:10:25;3.80;;;3.00;;
19016;SDS011;9641;51.494;6.670;2024-02-26T04:12:51;4.27;;;3.00;;
19016;SDS011;9641;51.494;6.670;2024-02-26T04:15:18;3.53;;;3.00;;
19016;SDS011;9641;51.494;6.670;2024-02-26T04:17:45;4.43;;;3.30;;
19016;SDS011;9641;51.494;6.670;2024-02-26T04:20:13;3.77;;;3.33;;
19016;SDS011;9641;51.494;6.670;2024-02-26T04:22:43;3.93;;;3.33;;
19016;SDS011;9641;51.494;6.670;2024-02-26T04:25:10;3.53;;;3.20;;
19016;SDS011;9641;51.494;6.670;2024-02-26T04:27:37;3.73;;;3.20;;
19016;SDS011;9641;51.494;6.670;2024-02-26T04:30:04;4.77;;;3.27;;
19016;SDS011;9641;51.494;6.670;2024-02-26T04:32:32;4.70;;;3.77;;
19016;SDS011;9641;51.494;6.670;2024-02-26T04:34:59;6.27;;;3.40;;
19016;SDS011;9641;51.494;6.670;2024-02-26T04:37:26;4.30;;;3.20;;
19016;SDS011;9641;51.494;6.670;2024-02-26T04:40:00;4.57;;;3.73;;
19016;SDS011;9641;51.494;6.670;2024-02-26T04:42:27;4.33;;;3.40;;
19016;SDS011;9641;51.494;6.670;2024-02-26T04:44:55;5.43;;;3.70;;
19016;SDS011;9641;51.494;6.670;2024-02-26T04:47:22;3.40;;;3.10;;
19016;SDS011;9641;51.494;6.670;2024-02-26T04:49:49;4.10;;;3.70;;
19016;SDS011;9641;51.494;6.670;2024-02-26T04:52:15;4.53;;;3.57;;
19016;SDS011;9641;51.494;6.670;2024-02-26T04:54:42;4.63;;;3.20;;
19016;SDS011;9641;51.494;6.670;2024-02-26T04:57:10;3.77;;;3.47;;
19016;SDS011;9641;51.494;6.670;2024-02-26T04:59:37;4.57;;;3.33;;
19016;SDS011;9641;51.494;6.670;2024-02-26T05:02:05;6.23;;;3.63;;
19016;SDS011;9641;51.494;6.670;2024-02-26T05:04:32;4.43;;;3.70;;
19016;SDS011;9641;51.494;6.670;2024-02-26T05:06:59;3.93;;;3.47;;
19016;SDS011;9641;51.494;6.670;2024-02-26T05:09:26;5.63;;;3.77;;
19016;SDS011;9641;51.494;6.670;2024-02-26T05:11:52;4.50;;;3.93;;
19016;SDS011;9641;51.494;6.670;2024-02-26T05:14:20;6.33;;;3.90;;
19016;SDS011;9641;51.494;6.670;2024-02-26T05:16:47;3.97;;;3.63;;
19016;SDS011;9641;51.494;6.670;2024-02-26T05:19:14;4.90;;;3.80;;
19016;SDS011;9641;51.494;6.670;2024-02-26T05:21:41;7.37;;;4.27;;
19016;SDS011;9641;51.494;6.670;2024-02-26T05:24:09;4.23;;;3.77;;
19016;SDS011;9641;51.494;6.670;2024-02-26T05:26:36;6.47;;;3.80;;
19016;SDS011;9641;51.494;6.670;2024-02-26T05:29:03;6.07;;;4.17;;
19016;SDS011;9641;51.494;6.670;2024-02-26T05:31:31;4.73;;;3.80;;
19016;SDS011;9641;51.494;6.670;2024-02-26T05:33:58;5.87;;;3.77;;
19016;SDS011;9641;51.494;6.670;2024-02-26T05:36:24;7.70;;;4.03;;
19016;SDS011;9641;51.494;6.670;2024-02-26T05:38:53;5.03;;;4.17;;
19016;SDS011;9641;51.494;6.670;2024-02-26T05:41:20;4.50;;;3.80;;
19016;SDS011;9641;51.494;6.670;2024-02-26T05:43:50;5.57;;;3.90;;
19016;SDS011;9641;51.494;6.670;2024-02-26T05:46:17;7.03;;;4.33;;
19016;SDS011;9641;51.494;6.670;2024-02-26T05:48:46;6.40;;;3.80;;
19016;SDS011;9641;51.494;6.670;2024-02-26T05:51:14;4.33;;;3.73;;
19016;SDS011;9641;51.494;6.670;2024-02-26T05:53:41;5.20;;;3.93;;
19016;SDS011;9641;51.494;6.670;2024-02-26T05:56:08;6.33;;;4.00;;
19016;SDS011;9641;51.494;6.670;2024-02-26T05:58:35;5.07;;;4.50;;
19016;SDS011;9641;51.494;6.670;2024-02-26T06:01:02;4.90;;;4.40;;
19016;SDS011;9641;51.494;6.670;2024-02-26T06:03:29;6.43;;;4.77;;
19016;SDS011;9641;51.494;6.670;2024-02-26T06:05:57;8.60;;;4.20;;
19016;SDS011;9641;51.494;6.670;2024-02-26T06:08:24;6.17;;;4.07;;
19016;SDS011;9641;51.494;6.670;2024-02-26T06:10:51;5.27;;;4.57;;
19016;SDS011;9641;51.494;6.670;2024-02-26T06:13:17;5.67;;;4.70;;
19016;SDS011;9641;51.494;6.670;2024-02-26T06:15:44;9.93;;;5.40;;
19016;SDS011;9641;51.494;6.670;2024-02-26T06:18:11;8.40;;;4.63;;
19016;SDS011;9641;51.494;6.670;2024-02-26T06:20:38;6.73;;;4.97;;
19016;SDS011;9641;51.494;6.670;2024-02-26T06:23:06;6.03;;;4.93;;
19016;SDS011;9641;51.494;6.670;2024-02-26T06:25:33;4.90;;;4.40;;
19016;SDS011;9641;51.494;6.670;2024-02-26T06:28:00;8.10;;;4.57;;
19016;SDS011;9641;51.494;6.670;2024-02-26T06:30:27;5.67;;;5.17;;
19016;SDS011;9641;51.494;6.670;2024-02-26T06:32:56;5.73;;;4.57;;
19016;SDS011;9641;51.494;6.670;2024-02-26T06:35:24;8.60;;;4.90;;
19016;SDS011;9641;51.494;6.670;2024-02-26T06:37:50;6.03;;;4.37;;
19016;SDS011;9641;51.494;6.670;2024-02-26T06:40:19;7.63;;;4.50;;
19016;SDS011;9641;51.494;6.670;2024-02-26T06:42:46;7.30;;;5.03;;
19016;SDS011;9641;51.494;6.670;2024-02-26T06:45:13;5.90;;;4.43;;
19016;SDS011;9641;51.494;6.670;2024-02-26T06:47:40;5.27;;;4.77;;
19016;SDS011;9641;51.494;6.670;2024-02-26T06:50:08;7.43;;;4.63;;
19016;SDS011;9641;51.494;6.670;2024-02-26T06:52:35;7.93;;;4.43;;
19016;SDS011;9641;51.494;6.670;2024-02-26T06:55:02;5.73;;;4.73;;
19016;SDS011;9641;51.494;6.670;2024-02-26T06:57:31;5.83;;;4.57;;
19016;SDS011;9641;51.494;6.670;2024-02-26T06:59:58;5.70;;;4.67;;
19016;SDS011;9641;51.494;6.670;2024-02-26T07:02:25;6.80;;;4.73;;
19016;SDS011;9641;51.494;6.670;2024-02-26T07:04:51;4.67;;;4.27;;
19016;SDS011;9641;51.494;6.670;2024-02-26T07:07:19;5.70;;;4.60;;
19016;SDS011;9641;51.494;6.670;2024-02-26T07:09:47;5.97;;;4.93;;
19016;SDS011;9641;51.494;6.670;2024-02-26T07:12:14;5.80;;;5.07;;
19016;SDS011;9641;51.494;6.670;2024-02-26T07:14:43;4.83;;;4.33;;
19016;SDS011;9641;51.494;6.670;2024-02-26T07:17:10;5.27;;;4.50;;
19016;SDS011;9641;51.494;6.670;2024-02-26T07:19:37;7.53;;;4.80;;
19016;SDS011;9641;51.494;6.670;2024-02-26T07:22:04;9.37;;;4.50;;
19016;SDS011;9641;51.494;6.670;2024-02-26T07:24:31;5.00;;;4.20;;
19016;SDS011;9641;51.494;6.670;2024-02-26T07:26:58;5.03;;;4.53;;
19016;SDS011;9641;51.494;6.670;2024-02-26T07:29:24;4.60;;;3.93;;
19016;SDS011;9641;51.494;6.670;2024-02-26T07:31:53;8.80;;;4.50;;
19016;SDS011;9641;51.494;6.670;2024-02-26T07:34:19;4.70;;;4.23;;
19016;SDS011;9641;51.494;6.670;2024-02-26T07:36:52;7.13;;;4.80;;
19016;SDS011;9641;51.494;6.670;2024-02-26T07:39:19;5.20;;;4.70;;
19016;SDS011;9641;51.494;6.670;2024-02-26T07:41:46;5.17;;;4.50;;
19016;SDS011;9641;51.494;6.670;2024-02-26T07:44:14;6.20;;;4.80;;
19016;SDS011;9641;51.494;6.670;2024-02-26T07:46:41;5.27;;;4.17;;
19016;SDS011;9641;51.494;6.670;2024-02-26T07:49:09;4.73;;;4.33;;
19016;SDS011;9641;51.494;6.670;2024-02-26T07:51:36;6.23;;;4.60;;
19016;SDS011;9641;51.494;6.670;2024-02-26T07:54:03;8.87;;;4.60;;
19016;SDS011;9641;51.494;6.670;2024-02-26T07:56:30;5.30;;;4.30;;
19016;SDS011;9641;51.494;6.670;2024-02-26T07:58:57;4.77;;;4.20;;
19016;SDS011;9641;51.494;6.670;2024-02-26T08:01:23;7.97;;;4.47;;
19016;SDS011;9641;51.494;6.670;2024-02-26T08:03:51;4.57;;;3.97;;
19016;SDS011;9641;51.494;6.670;2024-02-26T08:06:19;6.73;;;4.07;;
19016;SDS011;9641;51.494;6.670;2024-02-26T08:08:46;7.30;;;3.97;;
19016;SDS011;9641;51.494;6.670;2024-02-26T08:11:14;5.03;;;3.73;;
19016;SDS011;9641;51.494;6.670;2024-02-26T08:13:41;6.07;;;4.37;;
19016;SDS011;9641;51.494;6.670;2024-02-26T08:16:08;4.97;;;3.87;;
19016;SDS011;9641;51.494;6.670;2024-02-26T08:18:35;4.67;;;3.80;;
19016;SDS011;9641;51.494;6.670;2024-02-26T08:21:02;4.20;;;3.37;;
19016;SDS011;9641;51.494;6.670;2024-02-26T08:23:30;4.93;;;4.07;;
19016;SDS011;9641;51.494;6.670;2024-02-26T08:25:57;4.70;;;4.30;;
19016;SDS011;9641;51.494;6.670;2024-02-26T08:28:24;6.90;;;3.90;;
19016;SDS011;9641;51.494;6.670;2024-02-26T08:30:51;5.53;;;4.47;;
19016;SDS011;9641;51.494;6.670;2024-02-26T08:33:17;6.73;;;4.17;;
19016;SDS011;9641;51.494;6.670;2024-02-26T08:35:44;4.57;;;3.57;;
19016;SDS011;9641;51.494;6.670;2024-02-26T08:38:11;4.00;;;3.70;;
19016;SDS011;9641;51.494;6.670;2024-02-26T08:40:39;4.40;;;4.00;;
19016;SDS011;9641;51.494;6.670;2024-02-26T08:43:06;5.07;;;3.73;;
19016;SDS011;9641;51.494;6.670;2024-02-26T08:45:33;5.43;;;3.97;;
19016;SDS011;9641;51.494;6.670;2024-02-26T08:48:00;7.67;;;3.80;;
19016;SDS011;9641;51.494;6.670;2024-02-26T08:50:27;5.07;;;3.90;;
19016;SDS011;9641;51.494;6.670;2024-02-26T08:52:54;4.47;;;4.07;;
19016;SDS011;9641;51.494;6.670;2024-02-26T08:55:20;4.73;;;3.93;;
19016;SDS011;9641;51.494;6.670;2024-02-26T08:57:48;4.77;;;3.77;;
19016;SDS011;9641;51.494;6.670;2024-02-26T09:00:15;4.20;;;3.80;;
19016;SDS011;9641;51.494;6.670;2024-02-26T09:02:45;4.73;;;4.13;;
19016;SDS011;9641;51.494;6.670;2024-02-26T09:05:12;4.00;;;3.50;;
19016;SDS011;9641;51.494;6.670;2024-02-26T09:07:39;4.40;;;4.00;;
19016;SDS011;9641;51.494;6.670;2024-02-26T09:10:06;5.40;;;4.60;;
19016;SDS011;9641;51.494;6.670;2024-02-26T09:12:35;7.97;;;3.97;;
19016;SDS011;9641;51.494;6.670;2024-02-26T09:15:05;6.60;;;4.43;;
19016;SDS011;9641;51.494;6.670;2024-02-26T09:17:32;10.07;;;4.00;;
19016;SDS011;9641;51.494;6.670;2024-02-26T09:19:59;9.60;;;4.33;;
19016;SDS011;9641;51.494;6.670;2024-02-26T09:22:26;4.30;;;3.90;;
19016;SDS011;9641;51.494;6.670;2024-02-26T09:24:53;4.30;;;3.90;;
19016;SDS011;9641;51.494;6.670;2024-02-26T09:27:20;6.43;;;4.30;;
19016;SDS011;9641;51.494;6.670;2024-02-26T09:29:47;3.97;;;3.40;;
19016;SDS011;9641;51.494;6.670;2024-02-26T09:32:16;5.10;;;4.00;;
19016;SDS011;9641;51.494;6.670;2024-02-26T09:34:43;5.60;;;4.07;;
19016;SDS011;9641;51.494;6.670;2024-02-26T09:37:09;5.30;;;4.20;;
19016;SDS011;9641;51.494;6.670;2024-02-26T09:39:37;5.30;;;4.30;;
19016;SDS011;9641;51.494;6.670;2024-02-26T09:42:04;6.20;;;4.37;;
19016;SDS011;9641;51.494;6.670;2024-02-26T09:44:34;6.77;;;4.83;;
19016;SDS011;9641;51.494;6.670;2024-02-26T09:47:06;5.67;;;3.93;;
19016;SDS011;9641;51.494;6.670;2024-02-26T09:49:36;4.47;;;3.97;;
19016;SDS011;9641;51.494;6.670;2024-02-26T09:52:04;8.20;;;4.50;;
19016;SDS011;9641;51.494;6.670;2024-02-26T09:54:32;16.73;;;6.53;;
19016;SDS011;9641;51.494;6.670;2024-02-26T09:57:00;8.50;;;4.73;;
19016;SDS011;9641;51.494;6.670;2024-02-26T09:59:29;6.63;;;4.40;;
19016;SDS011;9641;51.494;6.670;2024-02-26T10:02:04;8.87;;;4.67;;
19016;SDS011;9641;51.494;6.670;2024-02-26T10:04:33;5.70;;;4.30;;
19016;SDS011;9641;51.494;6.670;2024-02-26T10:07:02;8.47;;;4.83;;
19016;SDS011;9641;51.494;6.670;2024-02-26T10:09:30;5.73;;;4.03;;
19016;SDS011;9641;51.494;6.670;2024-02-26T10:11:58;5.50;;;4.30;;
19016;SDS011;9641;51.494;6.670;2024-02-26T10:14:25;5.73;;;4.60;;
19016;SDS011;9641;51.494;6.670;2024-02-26T10:16:52;5.83;;;4.60;;
19016;SDS011;9641;51.494;6.670;2024-02-26T10:19:25;5.77;;;4.60;;
19016;SDS011;9641;51.494;6.670;2024-02-26T10:21:55;4.83;;;4.20;;
19016;SDS011;9641;51.494;6.670;2024-02-26T10:24:24;6.93;;;4.73;;
19016;SDS011;9641;51.494;6.670;2024-02-26T10:26:51;5.47;;;4.57;;
19016;SDS011;9641;51.494;6.670;2024-02-26T10:29:19;6.83;;;5.53;;
19016;SDS011;9641;51.494;6.670;2024-02-26T10:31:46;5.93;;;5.13;;
19016;SDS011;9641;51.494;6.670;2024-02-26T10:34:13;8.43;;;5.20;;
19016;SDS011;9641;51.494;6.670;2024-02-26T10:36:41;7.77;;;5.30;;
19016;SDS011;9641;51.494;6.670;2024-02-26T10:39:09;6.00;;;5.00;;
19016;SDS011;9641;51.494;6.670;2024-02-26T10:41:39;7.70;;;5.00;;
19016;SDS011;9641;51.494;6.670;2024-02-26T10:44:08;9.70;;;5.83;;
19016;SDS011;9641;51.494;6.670;2024-02-26T10:46:36;8.03;;;5.43;;
19016;SDS011;9641;51.494;6.670;2024-02-26T10:49:03;7.63;;;5.10;;
19016;SDS011;9641;51.494;6.670;2024-02-26T10:51:31;9.13;;;5.10;;
19016;SDS011;9641;51.494;6.670;2024-02-26T10:54:00;7.27;;;5.17;;
19016;SDS011;9641;51.494;6.670;2024-02-26T10:56:33;7.33;;;5.00;;
19016;SDS011;9641;51.494;6.670;2024-02-26T10:59:02;6.17;;;4.90;;
19016;SDS011;9641;51.494;6.670;2024-02-26T11:01:29;8.87;;;5.13;;
19016;SDS011;9641;51.494;6.670;2024-02-26T11:03:57;6.37;;;5.30;;
19016;SDS011;9641;51.494;6.670;2024-02-26T11:06:26;6.03;;;5.00;;
19016;SDS011;9641;51.494;6.670;2024-02-26T11:08:54;6.97;;;5.23;;
19016;SDS011;9641;51.494;6.670;2024-02-26T11:11:21;7.37;;;4.87;;
19016;SDS011;9641;51.494;6.670;2024-02-26T11:13:49;6.07;;;4.60;;
19016;SDS011;9641;51.494;6.670;2024-02-26T11:16:20;6.13;;;4.73;;
19016;SDS011;9641;51.494;6.670;2024-02-26T11:18:48;5.17;;;4.67;;
19016;SDS011;9641;51.494;6.670;2024-02-26T11:21:15;8.70;;;5.83;;
19016;SDS011;9641;51.494;6.670;2024-02-26T11:23:43;8.50;;;5.47;;
19016;SDS011;9641;51.494;6.670;2024-02-26T11:26:11;12.60;;;5.40;;
19016;SDS011;9641;51.494;6.670;2024-02-26T11:28:39;8.20;;;5.50;;
19016;SDS011;9641;51.494;6.670;2024-02-26T11:31:06;7.87;;;4.87;;
19016;SDS011;9641;51.494;6.670;2024-02-26T11:33:35;6.80;;;5.20;;
19016;SDS011;9641;51.494;6.670;2024-02-26T11:36:02;8.57;;;5.90;;
19016;SDS011;9641;51.494;6.670;2024-02-26T11:38:34;7.87;;;5.80;;
19016;SDS011;9641;51.494;6.670;2024-02-26T11:41:02;8.93;;;5.93;;
19016;SDS011;9641;51.494;6.670;2024-02-26T11:46:24;9.90;;;6.63;;
19016;SDS011;9641;51.494;6.670;2024-02-26T11:48:52;8.47;;;6.43;;
19016;SDS011;9641;51.494;6.670;2024-02-26T11:51:25;9.97;;;6.60;;
19016;SDS011;9641;51.494;6.670;2024-02-26T11:53:52;11.03;;;6.90;;
19016;SDS011;9641;51.494;6.670;2024-02-26T11:56:22;11.70;;;7.33;;
19016;SDS011;9641;51.494;6.670;2024-02-26T11:58:53;9.37;;;7.20;;
19016;SDS011;9641;51.494;6.670;2024-02-26T12:01:39;12.77;;;7.57;;
19016;SDS011;9641;51.494;6.670;2024-02-26T12:04:11;11.60;;;7.83;;
19016;SDS011;9641;51.494;6.670;2024-02-26T12:06:43;10.67;;;8.03;;
19016;SDS011;9641;51.494;6.670;2024-02-26T12:09:32;11.40;;;7.23;;
19016;SDS011;9641;51.494;6.670;2024-02-26T12:12:03;12.83;;;7.73;;
19016;SDS011;9641;51.494;6.670;2024-02-26T12:14:32;11.57;;;7.73;;
19016;SDS011;9641;51.494;6.670;2024-02-26T12:17:00;12.07;;;8.10;;
19016;SDS011;9641;51.494;6.670;2024-02-26T12:19:28;13.93;;;7.63;;
19016;SDS011;9641;51.494;6.670;2024-02-26T12:21:57;11.40;;;8.17;;
19016;SDS011;9641;51.494;6.670;2024-02-26T12:24:24;12.70;;;8.13;;
19016;SDS011;9641;51.494;6.670;2024-02-26T12:26:51;11.27;;;7.80;;
19016;SDS011;9641;51.494;6.670;2024-02-26T12:29:17;10.20;;;7.97;;
19016;SDS011;9641;51.494;6.670;2024-02-26T12:31:44;11.20;;;7.20;;
19016;SDS011;9641;51.494;6.670;2024-02-26T12:34:11;10.73;;;7.47;;
19016;SDS011;9641;51.494;6.670;2024-02-26T12:36:40;9.33;;;6.47;;
19016;SDS011;9641;51.494;6.670;2024-02-26T12:39:07;11.23;;;8.00;;
19016;SDS011;9641;51.494;6.670;2024-02-26T12:41:34;9.27;;;7.03;;
19016;SDS011;9641;51.494;6.670;2024-02-26T12:44:01;11.53;;;6.60;;
19016;SDS011;9641;51.494;6.670;2024-02-26T12:46:28;12.87;;;6.57;;
19016;SDS011;9641;51.494;6.670;2024-02-26T12:48:56;8.73;;;7.07;;
19016;SDS011;9641;51.494;6.670;2024-02-26T12:51:24;11.47;;;7.00;;
19016;SDS011;9641;51.494;6.670;2024-02-26T12:53:53;10.60;;;6.83;;
19016;SDS011;9641;51.494;6.670;2024-02-26T12:56:22;11.70;;;7.53;;
19016;SDS011;9641;51.494;6.670;2024-02-26T12:58:52;9.70;;;7.13;;
19016;SDS011;9641;51.494;6.670;2024-02-26T13:01:23;10.73;;;6.80;;
19016;SDS011;9641;51.494;6.670;2024-02-26T13:03:54;11.77;;;7.10;;
19016;SDS011;9641;51.494;6.670;2024-02-26T13:06:21;9.90;;;7.30;;
19016;SDS011;9641;51.494;6.670;2024-02-26T13:08:49;11.87;;;7.00;;
19016;SDS011;9641;51.494;6.670;2024-02-26T13:11:17;9.63;;;6.70;;
19016;SDS011;9641;51.494;6.670;2024-02-26T13:16:16;16.03;;;11.37;;
19016;SDS011;9641;51.494;6.670;2024-02-26T13:18:42;7.47;;;6.07;;
19016;SDS011;9641;51.494;6.670;2024-02-26T13:21:10;13.43;;;6.60;;
19016;SDS011;9641;51.494;6.670;2024-02-26T13:23:38;8.43;;;5.97;;
19016;SDS011;9641;51.494;6.670;2024-02-26T13:26:06;9.63;;;6.07;;
19016;SDS011;9641;51.494;6.670;2024-02-26T13:28:42;12.50;;;6.80;;
19016;SDS011;9641;51.494;6.670;2024-02-26T13:31:09;8.93;;;5.80;;
19016;SDS011;9641;51.494;6.670;2024-02-26T13:33:36;10.07;;;5.07;;
19016;SDS011;9641;51.494;6.670;2024-02-26T13:36:04;10.37;;;5.20;;
19016;SDS011;9641;51.494;6.670;2024-02-26T13:38:31;7.33;;;5.30;;
19016;SDS011;9641;51.494;6.670;2024-02-26T13:40:58;5.63;;;5.13;;
19016;SDS011;9641;51.494;6.670;2024-02-26T13:43:26;6.90;;;4.90;;
19016;SDS011;9641;51.494;6.670;2024-02-26T13:45:54;5.70;;;4.50;;
19016;SDS011;9641;51.494;6.670;2024-02-26T13:48:21;5.37;;;4.87;;
19016;SDS011;9641;51.494;6.670;2024-02-26T13:50:48;10.40;;;5.63;;
19016;SDS011;9641;51.494;6.670;2024-02-26T13:53:15;5.80;;;4.80;;
19016;SDS011;9641;51.494;6.670;2024-02-26T13:55:42;4.77;;;4.27;;
19016;SDS011;9641;51.494;6.670;2024-02-26T13:58:11;5.27;;;4.17;;
19016;SDS011;9641;51.494;6.670;2024-02-26T14:00:41;7.53;;;4.10;;
19016;SDS011;9641;51.494;6.670;2024-02-26T14:03:09;4.10;;;3.77;;
19016;SDS011;9641;51.494;6.670;2024-02-26T14:05:38;5.20;;;3.90;;
19016;SDS011;9641;51.494;6.670;2024-02-26T14:08:06;5.47;;;4.33;;
19016;SDS011;9641;51.494;6.670;2024-02-26T14:10:33;5.00;;;4.30;;
19016;SDS011;9641;51.494;6.670;2024-02-26T14:13:01;5.90;;;4.13;;
19016;SDS011;9641;51.494;6.670;2024-02-26T14:15:28;4.67;;;4.20;;
19016;SDS011;9641;51.494;6.670;2024-02-26T14:17:56;5.70;;;4.70;;
19016;SDS011;9641;51.494;6.670;2024-02-26T14:20:24;7.63;;;4.73;;
19016;SDS011;9641;51.494;6.670;2024-02-26T14:22:52;9.70;;;5.90;;
19016;SDS011;9641;51.494;6.670;2024-02-26T14:25:19;10.27;;;5.53;;
19016;SDS011;9641;51.494;6.670;2024-02-26T14:27:47;9.57;;;5.70;;
19016;SDS011;9641;51.494;6.670;2024-02-26T14:30:14;7.77;;;4.87;;
19016;SDS011;9641;51.494;6.670;2024-02-26T14:32:41;13.33;;;5.40;;
19016;SDS011;9641;51.494;6.670;2024-02-26T14:35:09;14.97;;;6.80;;
19016;SDS011;9641;51.494;6.670;2024-02-26T14:37:37;15.20;;;6.60;;
19016;SDS011;9641;51.494;6.670;2024-02-26T14:40:11;7.40;;;5.53;;
19016;SDS011;9641;51.494;6.670;2024-02-26T14:42:55;12.17;;;6.40;;
19016;SDS011;9641;51.494;6.670;2024-02-26T14:46:06;10.20;;;5.67;;
19016;SDS011;9641;51.494;6.670;2024-02-26T14:48:35;19.87;;;6.33;;
19016;SDS011;9641;51.494;6.670;2024-02-26T14:51:06;12.10;;;6.07;;
19016;SDS011;9641;51.494;6.670;2024-02-26T14:53:36;11.40;;;5.30;;
19016;SDS011;9641;51.494;6.670;2024-02-26T14:56:03;12.53;;;5.73;;
19016;SDS011;9641;51.494;6.670;2024-02-26T14:59:05;11.60;;;5.90;;
19016;SDS011;9641;51.494;6.670;2024-02-26T15:01:33;14.17;;;6.30;;
19016;SDS011;9641;51.494;6.670;2024-02-26T15:04:00;9.13;;;6.03;;
19016;SDS011;9641;51.494;6.670;2024-02-26T15:10:05;22.90;;;6.77;;
19016;SDS011;9641;51.494;6.670;2024-02-26T15:12:37;16.03;;;7.13;;
19016;SDS011;9641;51.494;6.670;2024-02-26T15:21:59;9.70;;;6.17;;